Southern Ontario METAR Reports

CYSN - St.Catharines
Updated: 09/22/2021 5:07pm
Light rain, Mist, Overcast
Light rain, Mist, Overcast
 Wind from NNW
Wind: NNW 17 km/h
Temperature: 20°C
Dew Point: 20°C
Humidity: 100%
Barometer: 1006.4 hPa
Summary: Light rain, Mist
Clouds: Overcast
Visibility: 2 km
Cloud details: Overcast 61 m
2021/09/22 21:07 CYSN 222107Z 33009KT 1SM -RA BR OVC002 20/20 A2972 RMK SF8 SLP063 DENSITY ALT 1200FT
CYHM - Hamilton
Updated: 09/22/2021 5:00pm
Light drizzle, Mist, Mostly cloudy
Light drizzle, Mist, Mostly cloudy
 Wind from NNE
Wind: NNE 28 km/h, Gust: 43 km/h
Temperature: 14°C
Dew Point: 13°C
Humidity: 94%
Barometer: 1007.5 hPa
Summary: Light drizzle, Mist
Clouds: Mostly cloudy
Visibility: 0.6 km
Cloud details: Mostly cloudy 152 m
Mostly cloudy 549 m
Mostly cloudy 762 m
2021/09/22 21:00 CYHM 222100Z 02015G23KT 3/8SM R12/P6000FT/U -DZ BR BKN005 BKN018 BKN025 14/13 A2975 RMK SF6SC1SC1 SLP075 DENSITY ALT 1100FT
 
CYYZ - Toronto
Updated: 09/22/2021 5:00pm
Light rain, Mist, Overcast
Light rain, Mist, Overcast
 Wind from N
Wind: N 30 km/h, Gust: 39 km/h
Temperature: 14°C
Dew Point: 14°C
Humidity: 100%
Barometer: 1008.5 hPa
Summary: Light rain, Mist
Clouds: Overcast
Visibility: 4 km
Cloud details: Few Clouds 244 m
Overcast 640 m
2021/09/22 21:00 CYYZ 222100Z 36016G21KT 2 1/2SM -RA BR FEW008 OVC021 14/14 A2978 RMK SF2SC6 SLP085 DENSITY ALT 800FT
CYKF - Waterloo
Updated: 09/22/2021 5:00pm
Light rain, Mist, Overcast
Light rain, Mist, Overcast
 Wind from N
Wind: N 19 km/h
Temperature: 12°C
Dew Point: 12°C
Humidity: 100%
Barometer: 1008.8 hPa
Summary: Light rain, Mist
Clouds: Overcast
Visibility: 5 km
Cloud details: Overcast 244 m
2021/09/22 21:00 CYKF 222100Z AUTO 01010KT 3SM -RA BR OVC008 12/12 A2979 RMK SLP091 DENSITY ALT 1200FT
 
CYXU - London
Updated: 09/22/2021 5:00pm
Rain, Overcast
Rain, Overcast
 Wind from N
Wind: N 26 km/h, Gust: 39 km/h
Temperature: 13°C
Dew Point: 12°C
Humidity: 94%
Barometer: 1007.5 hPa
Summary: Rain
Clouds: Overcast
Visibility: 13 km
Cloud details: Overcast 274 m
2021/09/22 21:00 CYXU 222100Z 01014G21KT 8SM RA OVC009 13/12 A2975 RMK SF8 SLP076 DENSITY ALT 1200FT
CYQG - Windsor
Updated: 09/22/2021 5:00pm
Light rain, Overcast
Light rain, Overcast
 Wind from N
Wind: N 37 km/h, Gust: 54 km/h
Temperature: 14°C
Dew Point: 13°C
Humidity: 94%
Barometer: 1008.5 hPa
Summary: Light rain
Clouds: Overcast
Visibility: 14 km
Cloud details: Overcast 488 m
2021/09/22 21:00 CYQG 222100Z AUTO 36020G29KT 9SM -RA OVC016 14/13 A2978 RMK PRESFR SLP088 DENSITY ALT 800FT
 
CYZR - Sarnia
Updated: 09/22/2021 5:00pm
Light rain, Overcast
Light rain, Overcast
 Wind from NNE
Wind: NNE 52 km/h, Gust: 78 km/h
Temperature: 14°C
Dew Point: 13°C
Humidity: 94%
Barometer: 1008.8 hPa
Summary: Light rain
Clouds: Overcast
Visibility: 14 km
Cloud details: Mostly cloudy 427 m
Mostly cloudy 671 m
Overcast 884 m
2021/09/22 21:00 CYZR 222100Z AUTO 02028G42KT 9SM -RA BKN014 BKN022 OVC029 14/13 A2979 RMK PRESFR SLP091 DENSITY ALT 900FT
CYVV - Wiarton
Updated: 09/22/2021 5:00pm
Light rain, Mist, Overcast
Light rain, Mist, Overcast
 Wind from NNE
Wind: NNE 31 km/h, Gust: 46 km/h
Temperature: 11°C
Dew Point: 11°C
Humidity: 100%
Barometer: 1013.5 hPa
Summary: Light rain, Mist
Clouds: Overcast
Visibility: 6 km
Cloud details: Overcast 122 m
2021/09/22 21:00 CYVV 222100Z 03017G25KT 4SM -RA BR OVC004 11/11 A2993 RMK SF8 /R10/ SLP140
 
CYPQ - Peterborough
Updated: 09/22/2021 5:09pm
Rain, Mist, Overcast
Rain, Mist, Overcast
 Wind from NNE
Wind: NNE 20 km/h, Gust: 30 km/h
Temperature: 15°C
Dew Point: 14°C
Humidity: 94%
Barometer: 1009.1 hPa
Summary: Rain, Mist
Clouds: Overcast
Visibility: 5 km
Cloud details: Overcast 213 m
2021/09/22 21:09 CYPQ 222109Z AUTO 03011G16KT 3SM RA BR OVC007 15/14 A2980 RMK SLP095 DENSITY ALT 900FT
CYTR - Trenton
Updated: 09/22/2021 5:00pm
Rain showers, Mist, Overcast
Rain showers, Mist, Overcast
 Wind from SE
Wind: SE 15 km/h
Temperature: 21°C
Dew Point: 20°C
Humidity: 94%
Barometer: 1009.8 hPa
Summary: Rain showers, Mist
Clouds: Overcast
Visibility: 3 km
Cloud details: Mostly cloudy 244 m
Overcast 853 m
2021/09/22 21:00 CYTR 222100Z 13008KT 110V170 2SM SHRA BR BKN008 OVC028 21/20 A2982 RMK SF7SC1 VIS VRB 1 1/2-2 1/2 SLP097